14/03/05 - 00h:01mDenunciar

Dassault Mirage III RS

METAR SBPB 141200Z 14007KT 9999 SCT017 BKN300 30/26 Q1011=

Comentários (0)

Fotos postadas a mais de 15 dias não podem receber comentários.